Toncontín International Airport
MHTG : rendu visible

Aérodrome :











RETROUVEZ-NOUS SUR...

 
LOGIN :

S'inscrire | Disclaimer

   EN    FR    IT 

 









Légende :    VFR   VFR Marginal   IFR   IFR Intensif   IFR Très Intensif
Visi : 
Plafond : 
>= 8 km
>= 3000ft
5 à 8 km
1000 à 3000 ft
1500m à 5 km
500 à 1000 ft
800 à 1500m
200 à 500 ft
< 800m
< 200 ft
Symboles :   Orages  Brouillard  Fortes neiges  Fortes précipitations  Vent > 20 kt






- Altitude de l'aérodrome : 3294 ft
- Code IATA : TGU


MHTG - Toncontín International

DERNIER METAR :
  • 251100Z 02006KT 8000 FEW010 SCT024 16/14 Q1020 A3012 NOSIG

METARs EXPIRÉS :
  • 251000Z 36004KT 9999 BKN024 17614 Q1020 A3012 NOSIG
  • 250900Z VRB03KT 9999 SCT026 17/14 Q1020 A3012 NOSIG

TAF TAF MHTG
Valide du 25 à 06h jusqu'au 26 à 06h UTC


250430Z 2506/2606 36004KT 9999 SCT030 SCT090 TX28/2520Z TN13/2510Z
BECMG 2510/2512 00000KT FEW008 BKN024
BECMG 2515/2517 36010KT SCT028
BECMG 2604/2606 000000KT



MET'MAP, la Météo Aéronautique d'un coup d'oeil ! - Copyright ORBIFLY Décembre 2007 - Disclaimer

ORBIFLY MET'MAP TEAM :

Programmation & Développement : Alexandra Zaïnal
Sur une idée originale de : Baudouin d'Aumeries
Assistance à la programmation : Marc-Olivier Méhu
Soutien technique & logistique : Manuel Goepfert

Contact : metmap@orbifly.com




SOURCES & CREDITS :

   NOAA       Earth
Advisory